Metar z połowy godziny Komunikat METAR ze strony awiacja.imgw.pl Metar G00 EPWA METAR EPWA 230730Z 27011KT 9999 FEW020 07/01 Q1019 NOSIG=